Time;durP1;ratioP1;P1;durP2;ratioP2;P2;SDS_P1;SDS_P2;PMS_P1;PMS_P2;Temp;Humidity;BMP_temperature;BMP_pressure;BME280_temperature;BME280_humidity;BME280_pressure;Samples;Min_cycle;Max_cycle;Signal;HPM_P1;HPM_P2
2022/05/10 00:00:32;;;;;;;4.38;2.75;;;14.30;64.50;;;;;;4984665;28;20036;-85
2022/05/10 00:02:59;;;;;;;4.90;3.22;;;14.30;64.60;;;;;;4980053;28;20049;-82
2022/05/10 00:05:27;;;;;;;3.72;3.25;;;14.30;64.80;;;;;;5004410;28;20153;-83
2022/05/10 00:07:52;;;;;;;7.80;3.03;;;14.20;65.00;;;;;;4995579;28;20124;-86
2022/05/10 00:10:18;;;;;;;3.47;3.10;;;14.30;65.10;;;;;;4991995;28;20097;-82
2022/05/10 00:12:43;;;;;;;3.40;2.60;;;14.20;65.10;;;;;;5005140;28;20073;-81
2022/05/10 00:15:09;;;;;;;3.50;3.20;;;14.20;65.20;;;;;;4980889;28;20033;-86
2022/05/10 00:17:39;;;;;;;3.80;3.30;;;14.20;65.20;;;;;;4993190;28;20153;-86
2022/05/10 00:20:07;;;;;;;3.17;2.88;;;14.20;65.40;;;;;;4977541;28;20034;-84
2022/05/10 00:22:32;;;;;;;4.38;3.03;;;14.10;65.30;;;;;;4995842;28;20427;-83
2022/05/10 00:24:58;;;;;;;3.22;2.92;;;14.10;65.40;;;;;;4998278;28;20105;-83
2022/05/10 00:27:23;;;;;;;3.42;3.03;;;14.00;65.50;;;;;;4990405;28;20538;-85
2022/05/10 00:29:49;;;;;;;6.38;3.60;;;14.00;65.60;;;;;;4996447;28;20046;-81
2022/05/10 00:32:14;;;;;;;5.25;3.40;;;14.00;65.70;;;;;;4987924;28;20030;-84
2022/05/10 00:34:40;;;;;;;5.07;3.70;;;13.90;65.80;;;;;;5003479;28;20094;-83
2022/05/10 00:37:05;;;;;;;3.40;3.10;;;13.90;65.90;;;;;;4976531;28;20060;-85
2022/05/10 00:39:31;;;;;;;3.30;3.05;;;13.80;66.20;;;;;;4975305;28;20061;-83
2022/05/10 00:41:58;;;;;;;5.22;3.30;;;13.80;66.30;;;;;;5007187;28;20037;-82
2022/05/10 00:44:49;;;;;;;4.68;3.33;;;13.70;66.30;;;;;;4999264;28;20276;-81
2022/05/10 00:47:32;;;;;;;3.97;3.42;;;13.70;66.90;;;;;;4999342;28;20031;-86
2022/05/10 00:50:01;;;;;;;4.03;3.25;;;13.70;66.70;;;;;;5005112;28;20069;-82
2022/05/10 00:52:32;;;;;;;7.38;3.53;;;13.70;66.70;;;;;;4978302;28;20029;-81
2022/05/10 00:55:40;;;;;;;5.53;3.55;;;13.60;66.80;;;;;;4970739;28;20037;-82
2022/05/10 00:58:20;;;;;;;5.50;3.50;;;13.60;67.20;;;;;;4974819;28;20034;-82
2022/05/10 01:00:46;;;;;;;4.78;3.78;;;13.60;67.20;;;;;;4976178;28;20088;-84
2022/05/10 01:03:31;;;;;;;3.92;3.20;;;13.60;66.90;;;;;;4986656;28;20026;-80
2022/05/10 01:06:31;;;;;;;3.33;3.03;;;13.50;67.40;;;;;;4991664;28;20516;-82
2022/05/10 01:09:16;;;;;;;4.32;3.30;;;13.50;67.40;;;;;;5000778;28;20046;-83
2022/05/10 01:11:51;;;;;;;4.65;3.60;;;13.50;67.50;;;;;;5004667;28;20433;-81
2022/05/10 01:14:22;;;;;;;5.40;3.45;;;13.40;67.40;;;;;;4985946;28;20053;-86
2022/05/10 01:16:47;;;;;;;3.77;3.43;;;13.30;67.30;;;;;;4974556;28;20121;-81
2022/05/10 01:19:13;;;;;;;3.72;3.42;;;13.30;67.40;;;;;;5001995;28;20129;-85
2022/05/10 01:21:49;;;;;;;4.88;3.90;;;13.30;67.60;;;;;;4979587;28;20121;-81
2022/05/10 01:24:34;;;;;;;4.65;3.55;;;13.20;67.90;;;;;;4992344;28;20078;-83
2022/05/10 01:27:00;;;;;;;4.43;3.42;;;13.20;68.30;;;;;;4968368;28;20038;-85
2022/05/10 01:29:31;;;;;;;3.55;3.00;;;13.10;67.90;;;;;;4993674;28;20076;-82
2022/05/10 01:34:43;;;;;;;4.40;3.42;;;13.00;68.10;;;;;;4997092;28;20530;-81
2022/05/10 01:37:11;;;;;;;3.92;3.58;;;13.00;68.10;;;;;;4996839;28;20033;-84
2022/05/10 01:39:44;;;;;;;5.32;3.30;;;13.00;68.30;;;;;;4990023;28;20077;-82
2022/05/10 01:42:13;;;;;;;5.32;3.97;;;12.90;68.70;;;;;;4976074;28;20039;-80
2022/05/10 01:44:52;;;;;;;4.20;3.67;;;12.90;68.70;;;;;;4995928;28;20034;-82
2022/05/10 01:47:28;;;;;;;7.20;4.03;;;12.80;68.80;;;;;;4995493;28;20646;-85
2022/05/10 01:50:18;;;;;;;5.32;3.80;;;12.80;69.10;;;;;;4997866;28;20029;-84
2022/05/10 01:53:06;;;;;;;4.47;3.25;;;12.70;69.20;;;;;;4995322;28;20041;-82
2022/05/10 01:55:42;;;;;;;7.07;3.33;;;12.70;69.10;;;;;;5000288;28;20116;-80
2022/05/10 01:58:16;;;;;;;3.80;3.50;;;12.70;69.20;;;;;;5010138;28;20062;-82
2022/05/10 02:00:46;;;;;;;5.13;3.70;;;12.70;69.30;;;;;;4975915;28;20364;-80
2022/05/10 02:03:30;;;;;;;3.85;3.42;;;12.70;69.40;;;;;;5003498;28;20034;-83
2022/05/10 02:06:29;;;;;;;4.00;3.47;;;12.70;69.50;;;;;;4999847;28;20029;-84
2022/05/10 02:09:07;;;;;;;5.53;3.28;;;12.60;69.70;;;;;;4991425;28;20037;-85
2022/05/10 02:12:04;;;;;;;3.95;3.58;;;12.60;69.70;;;;;;4978810;28;20048;-84
2022/05/10 02:14:34;;;;;;;6.00;3.45;;;12.60;69.80;;;;;;4978740;28;20034;-86
2022/05/10 02:17:25;;;;;;;3.63;3.33;;;12.60;69.60;;;;;;5000327;28;20034;-80
2022/05/10 02:19:54;;;;;;;4.95;3.45;;;12.60;70.00;;;;;;5012316;28;20162;-80
2022/05/10 02:22:36;;;;;;;4.13;3.72;;;12.50;69.70;;;;;;4982116;28;20041;-82
2022/05/10 02:25:07;;;;;;;4.35;3.40;;;12.50;69.80;;;;;;4996183;28;20110;-85
2022/05/10 02:27:35;;;;;;;;;;;12.50;69.80;;;;;;4995223;28;20042;-82
2022/05/10 02:30:13;;;;;;;3.50;3.05;;;12.40;69.50;;;;;;4987558;28;19917;-80
2022/05/10 02:35:28;;;;;;;6.05;3.88;;;12.40;69.80;;;;;;4997887;28;20092;-85
2022/05/10 02:37:53;;;;;;;4.60;4.13;;;12.30;69.80;;;;;;4996371;28;20046;-80
2022/05/10 02:40:19;;;;;;;4.30;3.42;;;12.30;69.90;;;;;;4995529;28;20404;-87
2022/05/10 02:42:45;;;;;;;3.45;3.15;;;12.20;70.10;;;;;;4980348;28;20034;-81
2022/05/10 02:45:12;;;;;;;3.85;3.55;;;12.20;70.20;;;;;;4994006;28;20108;-83
2022/05/10 02:47:39;;;;;;;3.95;3.45;;;12.20;70.40;;;;;;4987380;28;20480;-80
2022/05/10 02:50:13;;;;;;;5.00;3.70;;;12.20;70.60;;;;;;4985500;28;20069;-83
2022/05/10 02:52:39;;;;;;;3.78;3.33;;;12.20;70.70;;;;;;4972938;28;20070;-81
2022/05/10 02:55:36;;;;;;;4.07;3.67;;;12.10;70.60;;;;;;4987426;28;20118;-84
2022/05/10 02:58:06;;;;;;;4.13;3.22;;;12.10;71.00;;;;;;5001868;28;20038;-82
2022/05/10 03:00:32;;;;;;;6.20;3.78;;;12.10;70.60;;;;;;4973950;28;21472;-83
2022/05/10 03:02:59;;;;;;;5.38;4.13;;;12.10;70.60;;;;;;4989966;28;20118;-82
2022/05/10 03:05:25;;;;;;;4.80;3.83;;;12.10;70.70;;;;;;4984861;28;20091;-83
2022/05/10 03:07:53;;;;;;;3.78;3.42;;;12.00;70.70;;;;;;5011773;28;20034;-85
2022/05/10 03:10:19;;;;;;;5.78;4.00;;;12.00;70.80;;;;;;4988963;28;20492;-82
2022/05/10 03:12:45;;;;;;;4.40;3.40;;;12.00;70.90;;;;;;5002254;28;20038;-85
2022/05/10 03:15:11;;;;;;;4.97;3.55;;;12.00;70.90;;;;;;4994977;28;20108;-80
2022/05/10 03:17:36;;;;;;;4.53;3.67;;;12.00;71.00;;;;;;4995616;28;20437;-80
2022/05/10 03:20:03;;;;;;;4.85;3.40;;;12.00;71.00;;;;;;5005006;28;20072;-82
2022/05/10 03:22:29;;;;;;;4.18;3.72;;;11.90;71.10;;;;;;4996453;28;20511;-81
2022/05/10 03:24:54;;;;;;;4.95;3.53;;;11.90;71.20;;;;;;4996216;28;20137;-82
2022/05/10 03:27:20;;;;;;;5.15;3.78;;;11.90;71.30;;;;;;5006227;28;20034;-85
2022/05/10 03:29:45;;;;;;;3.70;3.40;;;11.90;71.30;;;;;;4994789;28;20290;-80
2022/05/10 03:32:11;;;;;;;4.05;3.65;;;11.90;71.40;;;;;;4978372;28;20050;-81
2022/05/10 03:34:54;;;;;;;7.28;3.78;;;11.90;71.40;;;;;;4997093;28;20499;-84
2022/05/10 03:37:24;;;;;;;4.18;3.83;;;11.90;71.30;;;;;;5009381;28;20251;-83
2022/05/10 03:39:49;;;;;;;5.13;3.55;;;11.80;71.30;;;;;;4986917;28;20824;-80
2022/05/10 03:42:15;;;;;;;9.05;3.83;;;11.80;71.50;;;;;;4988061;28;20034;-84
2022/05/10 03:44:40;;;;;;;4.18;3.75;;;11.70;71.50;;;;;;4985364;28;20578;-82
2022/05/10 03:47:07;;;;;;;5.63;3.42;;;11.70;71.70;;;;;;4992210;28;20116;-85
2022/05/10 03:49:32;;;;;;;5.10;3.53;;;11.70;71.80;;;;;;4984932;28;20564;-80
2022/05/10 03:51:58;;;;;;;3.65;3.35;;;11.70;71.90;;;;;;4983484;28;20120;-84
2022/05/10 03:54:24;;;;;;;4.07;3.50;;;11.70;71.90;;;;;;4996032;28;20034;-84
2022/05/10 03:56:50;;;;;;;4.55;3.72;;;11.70;71.90;;;;;;4971310;28;20031;-80
2022/05/10 03:59:16;;;;;;;3.70;3.38;;;11.70;72.00;;;;;;5001090;28;20791;-82
2022/05/10 04:01:42;;;;;;;4.55;3.70;;;11.70;72.00;;;;;;4993345;28;20038;-80
2022/05/10 04:04:08;;;;;;;4.07;3.22;;;11.70;72.20;;;;;;4999125;28;20034;-80
2022/05/10 04:06:33;;;;;;;3.50;3.20;;;11.70;72.10;;;;;;5000977;28;20037;-80
2022/05/10 04:08:59;;;;;;;4.22;3.83;;;11.60;72.00;;;;;;4990159;28;20041;-81
2022/05/10 04:11:24;;;;;;;5.32;3.95;;;11.60;72.20;;;;;;4984589;28;20042;-81
2022/05/10 04:13:50;;;;;;;5.00;3.92;;;11.70;72.30;;;;;;5007785;28;20079;-80
2022/05/10 04:16:16;;;;;;;4.20;3.45;;;11.60;73.10;;;;;;4995178;28;20099;-83
2022/05/10 04:18:42;;;;;;;4.18;3.25;;;11.60;72.20;;;;;;4994614;28;20088;-80
2022/05/10 04:21:08;;;;;;;3.85;3.55;;;11.60;72.30;;;;;;4997928;28;20066;-81
2022/05/10 04:23:33;;;;;;;4.80;3.97;;;11.60;72.40;;;;;;4994686;28;20065;-79
2022/05/10 04:26:06;;;;;;;3.80;3.42;;;11.60;72.40;;;;;;4980174;28;20032;-80
2022/05/10 04:28:33;;;;;;;7.85;3.65;;;11.60;72.50;;;;;;4970513;28;20423;-79
2022/05/10 04:30:59;;;;;;;3.92;3.53;;;11.60;72.50;;;;;;4978694;28;20571;-79
2022/05/10 04:33:24;;;;;;;3.95;3.50;;;11.60;72.60;;;;;;4976568;28;20045;-83
2022/05/10 04:35:50;;;;;;;7.05;3.55;;;11.60;72.60;;;;;;4997412;28;20038;-83
2022/05/10 04:38:15;;;;;;;5.38;3.53;;;11.60;72.70;;;;;;4997531;28;20042;-81
2022/05/10 04:43:25;;;;;;;5.07;3.50;;;11.70;72.90;;;;;;5010489;28;20533;-80
2022/05/10 04:45:51;;;;;;;4.07;3.67;;;11.70;72.90;;;;;;4990432;28;20042;-80
2022/05/10 04:48:16;;;;;;;3.67;3.38;;;11.70;72.90;;;;;;4992273;28;20060;-80
2022/05/10 04:50:42;;;;;;;3.50;3.20;;;11.80;73.00;;;;;;4996299;28;20382;-80
2022/05/10 04:53:08;;;;;;;3.50;3.20;;;11.80;73.00;;;;;;4979539;28;20366;-80
2022/05/10 04:55:34;;;;;;;5.50;3.83;;;11.80;73.00;;;;;;4996579;28;20065;-81
2022/05/10 04:58:00;;;;;;;4.65;3.80;;;11.90;74.00;;;;;;4981489;28;20096;-80
2022/05/10 05:00:26;;;;;;;5.20;3.80;;;11.90;73.20;;;;;;4969542;28;20409;-81
2022/05/10 05:02:51;;;;;;;9.20;5.97;;;11.90;73.20;;;;;;4977363;28;20041;-81
2022/05/10 05:05:17;;;;;;;10.00;7.15;;;11.90;73.20;;;;;;4981397;28;20141;-80
2022/05/10 05:07:43;;;;;;;8.43;5.35;;;12.00;73.20;;;;;;4993032;28;20176;-80
2022/05/10 05:10:09;;;;;;;8.38;5.95;;;12.00;73.30;;;;;;4980835;28;20026;-80
2022/05/10 05:12:35;;;;;;;9.38;5.18;;;12.00;73.20;;;;;;4995271;28;20068;-78
2022/05/10 05:15:01;;;;;;;6.63;4.80;;;12.10;73.30;;;;;;4986813;28;20543;-80
2022/05/10 05:17:26;;;;;;;6.38;5.00;;;12.10;73.30;;;;;;4969524;28;20116;-81
2022/05/10 05:19:52;;;;;;;11.65;4.82;;;12.10;73.40;;;;;;4983644;28;20238;-80
2022/05/10 05:22:17;;;;;;;7.75;4.20;;;12.20;73.60;;;;;;4976482;28;20487;-80
2022/05/10 05:24:43;;;;;;;6.88;5.07;;;12.20;73.50;;;;;;4999235;28;20042;-81
2022/05/10 05:27:08;;;;;;;7.57;5.47;;;12.30;73.50;;;;;;4991154;28;20052;-81
2022/05/10 05:29:34;;;;;;;5.70;5.05;;;12.30;73.40;;;;;;4980715;28;20459;-79
2022/05/10 05:32:00;;;;;;;7.05;4.65;;;12.30;73.40;;;;;;4949636;28;20034;-80
2022/05/10 05:34:25;;;;;;;5.93;5.05;;;12.40;73.50;;;;;;4996117;28;20065;-81
2022/05/10 05:39:35;;;;;;;4.85;4.28;;;12.50;73.80;;;;;;4990292;28;20335;-81
2022/05/10 05:42:01;;;;;;;5.10;4.18;;;12.50;73.60;;;;;;4974057;28;20049;-80
2022/05/10 05:44:26;;;;;;;4.10;3.70;;;12.60;73.50;;;;;;4996347;28;20025;-80
2022/05/10 05:46:52;;;;;;;7.00;4.53;;;12.60;73.40;;;;;;4992352;28;20451;-80
2022/05/10 05:49:17;;;;;;;4.45;4.05;;;12.70;73.30;;;;;;4996096;28;20504;-80
2022/05/10 05:51:43;;;;;;;6.95;5.68;;;12.70;73.10;;;;;;4993355;28;20034;-81
2022/05/10 05:54:10;;;;;;;7.60;5.10;;;12.80;73.10;;;;;;4988067;28;20041;-79
2022/05/10 05:56:35;;;;;;;12.68;7.10;;;12.80;73.20;;;;;;4996690;28;20038;-81
2022/05/10 05:59:01;;;;;;;8.50;6.20;;;12.90;73.20;;;;;;4995279;28;20421;-80
2022/05/10 06:01:27;;;;;;;7.55;4.75;;;12.90;73.10;;;;;;4992233;28;20093;-80
2022/05/10 06:03:55;;;;;;;4.80;4.30;;;13.00;73.20;;;;;;4994192;28;20519;-81
2022/05/10 06:06:21;;;;;;;5.90;4.85;;;13.00;73.10;;;;;;4977633;28;20121;-80
2022/05/10 06:08:47;;;;;;;9.93;5.28;;;13.10;73.20;;;;;;4968810;28;20570;-80
2022/05/10 06:11:13;;;;;;;9.80;5.63;;;13.20;73.10;;;;;;4980171;28;20027;-79
2022/05/10 06:13:38;;;;;;;9.77;6.72;;;13.20;73.10;;;;;;4999245;28;20092;-79
2022/05/10 06:16:06;;;;;;;10.75;6.88;;;13.30;73.20;;;;;;4990118;28;20029;-81
2022/05/10 06:18:31;;;;;;;11.27;7.90;;;13.40;73.20;;;;;;4985925;28;20060;-80
2022/05/10 06:20:57;;;;;;;12.98;7.47;;;13.40;73.10;;;;;;4998122;28;20093;-80
2022/05/10 06:23:22;;;;;;;10.32;6.85;;;13.50;73.90;;;;;;4997200;28;20118;-81
2022/05/10 06:25:48;;;;;;;14.63;8.55;;;13.50;72.90;;;;;;4989814;28;20069;-80
2022/05/10 06:28:13;;;;;;;10.57;6.40;;;13.60;72.90;;;;;;4990978;28;20126;-81
2022/05/10 06:30:39;;;;;;;12.00;6.88;;;13.70;72.90;;;;;;4991980;28;20095;-81
2022/05/10 06:33:05;;;;;;;14.48;6.50;;;13.80;72.80;;;;;;4985110;28;20385;-82
2022/05/10 06:35:30;;;;;;;10.27;5.63;;;13.90;72.70;;;;;;4995764;28;20109;-79
2022/05/10 06:40:40;;;;;;;6.72;5.25;;;14.10;72.50;;;;;;5002382;28;20566;-81
2022/05/10 06:43:05;;;;;;;6.75;5.10;;;14.20;72.30;;;;;;4983184;28;20625;-81
2022/05/10 06:45:31;;;;;;;14.40;6.25;;;14.30;72.30;;;;;;4973263;28;20393;-80
2022/05/10 06:47:56;;;;;;;9.07;5.43;;;14.40;72.20;;;;;;4989713;28;20213;-80
2022/05/10 06:50:23;;;;;;;11.45;6.03;;;14.50;72.10;;;;;;4970097;28;20025;-79
2022/05/10 06:52:50;;;;;;;10.90;6.60;;;14.60;72.00;;;;;;4975134;28;20068;-80
2022/05/10 06:55:16;;;;;;;12.00;6.47;;;14.70;71.80;;;;;;5006837;28;20255;-80
2022/05/10 06:57:41;;;;;;;15.50;6.45;;;14.80;71.70;;;;;;4982632;28;20041;-80
2022/05/10 07:00:08;;;;;;;12.63;7.28;;;14.90;71.40;;;;;;5004638;28;20091;-80
2022/05/10 07:02:34;;;;;;;17.77;6.90;;;15.00;71.30;;;;;;4985440;28;20041;-80
2022/05/10 07:04:59;;;;;;;15.57;7.65;;;15.20;71.20;;;;;;4999794;28;20038;-81
2022/05/10 07:07:25;;;;;;;14.27;7.75;;;15.30;71.00;;;;;;4992679;28;20055;-79
2022/05/10 07:09:52;;;;;;;7.57;5.65;;;15.40;71.00;;;;;;4978452;28;20037;-80
2022/05/10 07:12:17;;;;;;;8.77;6.38;;;15.50;70.80;;;;;;5000244;28;20373;-81
2022/05/10 07:14:45;;;;;;;15.10;6.25;;;15.70;70.50;;;;;;4976393;28;20057;-81
2022/05/10 07:17:12;;;;;;;12.25;5.65;;;15.80;70.30;;;;;;4981169;28;20058;-80
2022/05/10 07:19:37;;;;;;;9.77;5.70;;;15.90;70.90;;;;;;4984923;28;20549;-80
2022/05/10 07:22:03;;;;;;;7.47;5.05;;;16.10;69.90;;;;;;4964677;28;20046;-81
2022/05/10 07:24:28;;;;;;;8.27;5.80;;;16.20;69.60;;;;;;5012983;28;20515;-79
2022/05/10 07:26:54;;;;;;;7.78;5.72;;;16.30;69.40;;;;;;4993903;28;20035;-81
2022/05/10 07:29:20;;;;;;;8.10;5.00;;;16.50;69.30;;;;;;4996808;28;20492;-80
2022/05/10 07:31:46;;;;;;;12.38;4.85;;;16.60;69.00;;;;;;4992363;28;20030;-79
2022/05/10 07:34:11;;;;;;;7.78;4.60;;;16.80;68.60;;;;;;4999843;28;20647;-80
2022/05/10 07:36:38;;;;;;;10.90;5.03;;;16.90;68.40;;;;;;5012474;28;20048;-81
2022/05/10 07:39:05;;;;;;;7.03;4.78;;;17.10;68.00;;;;;;4991396;28;20407;-80
2022/05/10 07:41:31;;;;;;;9.52;4.90;;;17.20;67.60;;;;;;4992288;28;20457;-80
2022/05/10 07:43:56;;;;;;;11.82;4.78;;;17.40;67.30;;;;;;4999446;28;20117;-80
2022/05/10 07:46:22;;;;;;;8.10;4.93;;;17.60;67.10;;;;;;4994183;28;20287;-80
2022/05/10 07:48:47;;;;;;;6.47;4.18;;;17.70;66.90;;;;;;4994774;28;20412;-80
2022/05/10 07:51:13;;;;;;;7.40;4.65;;;17.90;66.60;;;;;;4996386;28;20034;-80
2022/05/10 07:53:40;;;;;;;12.52;5.88;;;18.00;66.30;;;;;;4990649;28;20048;-79
2022/05/10 07:56:05;;;;;;;5.65;4.13;;;18.20;66.10;;;;;;4991757;28;20147;-80
2022/05/10 07:58:32;;;;;;;4.80;3.85;;;18.50;65.80;;;;;;4997637;28;20501;-80
2022/05/10 08:00:59;;;;;;;8.82;5.60;;;18.60;65.50;;;;;;4975817;28;20033;-81
2022/05/10 08:03:25;;;;;;;6.05;4.40;;;18.80;65.10;;;;;;4987612;28;20038;-79
2022/05/10 08:05:52;;;;;;;9.25;5.28;;;19.00;64.60;;;;;;4999029;28;20038;-79
2022/05/10 08:08:17;;;;;;;6.78;5.35;;;19.20;64.30;;;;;;4979606;28;20035;-79
2022/05/10 08:10:43;;;;;;;6.72;5.30;;;19.40;64.00;;;;;;4992412;28;20045;-79
2022/05/10 08:13:13;;;;;;;6.28;4.63;;;19.60;63.50;;;;;;5000873;28;20049;-79
2022/05/10 08:15:38;;;;;;;6.60;4.68;;;19.80;63.10;;;;;;4975299;28;20092;-80
2022/05/10 08:18:05;;;;;;;6.72;5.47;;;19.90;62.90;;;;;;4987344;28;20081;-80
2022/05/10 08:20:31;;;;;;;7.03;5.10;;;20.10;62.50;;;;;;4998958;28;20120;-81
2022/05/10 08:22:56;;;;;;;8.63;5.57;;;20.30;62.10;;;;;;4998824;28;20627;-79
2022/05/10 08:25:22;;;;;;;5.90;4.43;;;20.50;61.80;;;;;;4982945;28;21124;-78
2022/05/10 08:27:48;;;;;;;12.00;5.72;;;20.70;61.60;;;;;;4997737;28;20280;-79
2022/05/10 08:30:13;;;;;;;8.30;5.30;;;20.90;61.30;;;;;;4997601;28;20042;-80
2022/05/10 08:32:39;;;;;;;6.10;5.10;;;21.10;60.80;;;;;;4988417;28;20048;-80
2022/05/10 08:35:06;;;;;;;9.68;5.25;;;21.30;60.60;;;;;;4995143;28;20056;-80
2022/05/10 08:37:32;;;;;;;7.07;5.28;;;21.50;60.20;;;;;;4987344;28;20042;-79
2022/05/10 08:39:58;;;;;;;8.15;4.78;;;21.70;59.80;;;;;;5000927;28;20393;-80
2022/05/10 08:42:25;;;;;;;5.20;4.70;;;21.90;59.60;;;;;;4972406;28;20399;-80
2022/05/10 08:44:55;;;;;;;8.45;4.38;;;22.20;59.40;;;;;;4990427;28;20033;-79
2022/05/10 08:47:21;;;;;;;7.30;5.63;;;22.40;58.90;;;;;;4994444;28;20026;-79
2022/05/10 08:49:54;;;;;;;7.95;5.80;;;22.60;58.60;;;;;;4998757;28;20031;-79
2022/05/10 08:52:20;;;;;;;7.03;5.47;;;22.80;58.20;;;;;;5001930;28;20037;-79
2022/05/10 08:54:45;;;;;;;6.75;5.65;;;22.90;57.80;;;;;;4978740;28;20054;-79
2022/05/10 08:57:39;;;;;;;7.30;5.60;;;23.10;57.40;;;;;;5000458;28;20057;-80
2022/05/10 09:00:10;;;;;;;6.60;5.30;;;23.30;57.60;;;;;;4983780;28;20029;-77
2022/05/10 09:02:40;;;;;;;5.97;5.05;;;23.40;56.90;;;;;;4967906;28;20358;-80
2022/05/10 09:05:14;;;;;;;7.07;5.43;;;23.60;56.60;;;;;;5006780;28;20034;-79
2022/05/10 09:07:53;;;;;;;7.07;5.45;;;23.70;56.40;;;;;;4966477;28;20033;-80
2022/05/10 09:10:22;;;;;;;6.05;5.45;;;23.90;55.80;;;;;;4996418;28;20046;-79
2022/05/10 09:13:01;;;;;;;5.20;4.70;;;24.00;55.70;;;;;;4982909;28;20053;-79
2022/05/10 09:15:29;;;;;;;5.18;4.40;;;24.20;55.30;;;;;;4994219;28;20130;-78
2022/05/10 09:17:56;;;;;;;6.32;5.45;;;24.50;55.30;;;;;;4974592;28;20657;-79
2022/05/10 09:20:21;;;;;;;6.55;4.68;;;24.70;55.10;;;;;;4998617;28;20037;-78
2022/05/10 09:23:07;;;;;;;6.65;4.75;;;24.90;54.80;;;;;;5011528;28;20027;-80
2022/05/10 09:25:40;;;;;;;6.40;4.78;;;25.10;54.00;;;;;;4997601;28;20172;-80
2022/05/10 09:28:36;;;;;;;5.30;4.55;;;25.30;54.00;;;;;;4978324;28;20086;-79
2022/05/10 09:36:52;;;;;;;6.32;4.35;;;26.10;53.10;;;;;;4999910;28;20084;-80
2022/05/10 09:39:32;;;;;;;5.63;4.95;;;26.30;52.80;;;;;;4998559;28;20409;-79
2022/05/10 09:41:57;;;;;;;6.07;5.47;;;26.50;52.20;;;;;;4989563;28;20037;-79
2022/05/10 09:44:27;;;;;;;8.23;4.70;;;26.70;52.30;;;;;;4998031;28;20342;-79
2022/05/10 09:47:16;;;;;;;5.85;3.78;;;26.90;52.00;;;;;;4980552;28;20039;-78
2022/05/10 09:49:41;;;;;;;9.52;4.80;;;27.10;51.80;;;;;;4981163;28;20038;-79
2022/05/10 09:52:16;;;;;;;5.43;4.32;;;27.30;51.60;;;;;;4991003;28;20488;-78
2022/05/10 09:54:42;;;;;;;5.88;4.75;;;27.50;51.10;;;;;;4982949;28;20038;-79
2022/05/10 09:57:13;;;;;;;4.68;4.22;;;27.70;50.80;;;;;;4981066;28;20068;-79
2022/05/10 09:59:38;;;;;;;;;;;27.90;50.60;;;;;;4992334;28;20123;-79
2022/05/10 10:02:04;;;;;;;4.72;4.32;;;28.20;50.60;;;;;;5007157;28;20471;-79
2022/05/10 10:04:31;;;;;;;5.25;4.40;;;28.40;50.40;;;;;;4997791;28;20121;-79
2022/05/10 10:07:16;;;;;;;6.25;4.43;;;28.50;50.10;;;;;;5003156;28;20038;-80
2022/05/10 10:09:43;;;;;;;5.43;4.88;;;28.70;49.20;;;;;;4981752;28;20064;-80
2022/05/10 10:12:37;;;;;;;5.65;3.42;;;28.80;49.40;;;;;;4996379;28;20032;-79
2022/05/10 10:15:25;;;;;;;8.93;4.75;;;28.90;48.80;;;;;;4977383;28;20107;-79
2022/05/10 10:18:04;;;;;;;4.80;3.92;;;28.90;48.00;;;;;;4997831;28;20117;-79
2022/05/10 10:20:48;;;;;;;6.38;4.50;;;29.00;48.60;;;;;;5001131;28;20113;-79
2022/05/10 10:23:26;;;;;;;4.90;4.10;;;29.10;47.70;;;;;;4994459;28;20417;-79
2022/05/10 10:25:52;;;;;;;5.38;4.13;;;29.20;47.70;;;;;;5000663;28;20033;-79
2022/05/10 10:28:34;;;;;;;4.65;4.25;;;29.10;47.70;;;;;;4999660;28;20026;-80
2022/05/10 10:31:04;;;;;;;6.97;4.40;;;29.10;47.60;;;;;;4988484;28;20091;-79
2022/05/10 10:33:39;;;;;;;6.03;4.03;;;29.30;47.50;;;;;;4999161;28;20388;-80
2022/05/10 10:36:18;;;;;;;5.43;4.20;;;29.40;47.30;;;;;;4999601;28;20169;-80
2022/05/10 10:39:06;;;;;;;4.35;3.42;;;29.60;46.40;;;;;;4982295;28;20054;-79
2022/05/10 10:41:55;;;;;;;3.95;3.55;;;29.80;46.00;;;;;;4996655;28;20452;-80
2022/05/10 10:44:23;;;;;;;4.47;3.70;;;29.90;44.90;;;;;;4984248;28;20040;-80
2022/05/10 10:47:17;;;;;;;4.15;3.70;;;30.10;45.80;;;;;;4987735;28;20033;-80
2022/05/10 10:50:19;;;;;;;4.00;3.58;;;30.30;44.50;;;;;;4997814;28;20034;-79
2022/05/10 10:52:45;;;;;;;5.72;3.78;;;30.60;43.90;;;;;;5002805;28;20400;-80
2022/05/10 10:55:10;;;;;;;3.65;2.97;;;30.90;44.30;;;;;;4996981;28;20061;-79
2022/05/10 10:57:55;;;;;;;3.58;3.28;;;31.00;43.20;;;;;;4985721;28;20566;-81
2022/05/10 11:00:23;;;;;;;2.95;2.72;;;31.10;41.70;;;;;;4991638;28;20038;-81
2022/05/10 11:02:55;;;;;;;2.70;2.50;;;31.30;42.60;;;;;;4984560;28;20037;-81
2022/05/10 11:05:28;;;;;;;4.00;3.03;;;31.50;42.20;;;;;;4999816;28;20117;-80
2022/05/10 11:08:06;;;;;;;5.13;2.83;;;31.70;40.70;;;;;;4996509;28;20041;-80
2022/05/10 11:10:59;;;;;;;3.50;3.05;;;31.70;40.60;;;;;;4998031;28;20038;-80
2022/05/10 11:13:49;;;;;;;3.17;2.88;;;31.80;39.60;;;;;;4997800;28;20038;-80
2022/05/10 11:16:36;;;;;;;2.70;2.45;;;32.00;38.80;;;;;;5002944;28;20030;-81
2022/05/10 11:19:20;;;;;;;4.55;2.78;;;32.10;39.60;;;;;;5001147;28;20111;-80
2022/05/10 11:21:56;;;;;;;2.60;2.17;;;32.30;38.90;;;;;;5001955;28;20121;-80
2022/05/10 11:24:31;;;;;;;3.97;2.47;;;32.30;38.60;;;;;;4996643;28;20082;-80
2022/05/10 11:27:10;;;;;;;4.38;2.60;;;32.30;38.50;;;;;;4984831;28;20145;-80
2022/05/10 11:29:41;;;;;;;3.45;2.60;;;32.50;37.90;;;;;;4997485;28;20452;-79
2022/05/10 11:32:15;;;;;;;2.53;2.25;;;32.60;38.10;;;;;;4982736;28;20497;-80
2022/05/10 11:35:11;;;;;;;4.22;2.55;;;32.60;37.40;;;;;;4992933;28;20041;-80
2022/05/10 11:37:42;;;;;;;2.78;2.58;;;32.70;36.50;;;;;;4968737;28;20490;-80
2022/05/10 11:40:17;;;;;;;4.63;2.60;;;32.70;37.30;;;;;;4969165;28;20045;-80
2022/05/10 11:42:57;;;;;;;4.32;2.80;;;32.80;37.30;;;;;;4990639;28;20029;-80
2022/05/10 11:45:36;;;;;;;3.80;2.53;;;32.70;36.90;;;;;;4980952;28;20042;-82
2022/05/10 11:48:13;;;;;;;3.40;2.83;;;32.70;36.10;;;;;;4977194;28;20478;-81
2022/05/10 11:54:24;;;;;;;3.58;2.65;;;32.50;35.20;;;;;;5005238;28;20037;-80
2022/05/10 11:56:50;;;;;;;3.10;2.75;;;32.50;36.50;;;;;;5000058;28;20441;-82
2022/05/10 11:59:24;;;;;;;3.05;2.83;;;32.50;36.40;;;;;;4988387;28;20030;-81
2022/05/10 12:01:51;;;;;;;3.05;2.85;;;32.50;36.00;;;;;;4972830;28;20101;-81
2022/05/10 12:04:43;;;;;;;2.92;2.67;;;32.40;36.20;;;;;;4980953;28;20038;-81
2022/05/10 12:07:20;;;;;;;3.13;2.90;;;32.30;35.50;;;;;;4986085;28;20114;-80
2022/05/10 12:09:52;;;;;;;6.05;2.80;;;32.20;35.90;;;;;;5006241;28;20018;-81
2022/05/10 12:12:33;;;;;;;2.35;2.20;;;32.30;35.60;;;;;;5000415;28;20254;-81
2022/05/10 12:21:20;;;;;;;4.25;3.08;;;32.50;35.40;;;;;;4996319;28;20436;-81
2022/05/10 12:24:04;;;;;;;3.20;2.90;;;32.70;35.50;;;;;;4978742;28;20064;-81
2022/05/10 12:26:36;;;;;;;4.70;2.75;;;32.80;34.60;;;;;;4997865;28;20033;-81
2022/05/10 12:29:05;;;;;;;2.63;2.40;;;32.90;34.80;;;;;;4996919;28;20034;-81
2022/05/10 12:31:30;;;;;;;2.72;2.53;;;32.90;35.00;;;;;;4989629;28;20488;-80
2022/05/10 12:34:08;;;;;;;2.47;2.38;;;33.00;35.10;;;;;;4995432;28;20045;-81
2022/05/10 12:36:40;;;;;;;2.75;2.53;;;33.00;34.40;;;;;;4997580;28;20512;-81
2022/05/10 12:39:30;;;;;;;2.70;2.50;;;32.90;34.40;;;;;;4997401;28;20176;-81
2022/05/10 12:42:02;;;;;;;3.63;2.53;;;32.80;33.80;;;;;;4979713;28;20045;-81
2022/05/10 12:44:39;;;;;;;2.95;2.65;;;32.80;34.30;;;;;;4988308;28;20487;-82
2022/05/10 12:47:19;;;;;;;3.30;2.65;;;32.60;34.40;;;;;;5003907;28;20034;-80
2022/05/10 12:50:15;;;;;;;3.40;2.73;;;32.40;34.70;;;;;;4991647;28;20042;-79
2022/05/10 12:52:43;;;;;;;3.13;2.90;;;32.30;34.60;;;;;;4948816;28;20289;-81
2022/05/10 12:55:23;;;;;;;4.47;2.40;;;32.30;35.00;;;;;;4990694;28;20050;-81
2022/05/10 12:57:56;;;;;;;6.22;2.90;;;32.30;34.50;;;;;;4996083;28;20570;-81
2022/05/10 13:00:24;;;;;;;2.75;2.40;;;32.30;34.30;;;;;;4997198;28;20038;-81
2022/05/10 13:03:06;;;;;;;4.28;2.88;;;32.40;34.50;;;;;;4999535;28;20237;-81
2022/05/10 13:05:53;;;;;;;3.17;2.88;;;32.30;34.40;;;;;;4990474;28;20084;-81
2022/05/10 13:08:50;;;;;;;3.47;2.63;;;32.30;34.10;;;;;;5001265;28;20075;-81
2022/05/10 13:11:17;;;;;;;3.13;2.75;;;32.30;34.50;;;;;;4979142;28;20026;-79
2022/05/10 13:13:44;;;;;;;4.25;2.40;;;32.20;35.10;;;;;;4993530;28;20046;-80
2022/05/10 13:16:14;;;;;;;3.03;2.72;;;32.10;34.40;;;;;;4970699;28;20084;-81
2022/05/10 13:18:41;;;;;;;2.85;2.65;;;31.90;34.40;;;;;;4992219;28;20117;-81
2022/05/10 13:21:07;;;;;;;3.00;2.80;;;31.90;34.60;;;;;;4984614;28;20046;-81
2022/05/10 13:23:34;;;;;;;4.82;2.80;;;31.90;34.80;;;;;;4999000;28;20052;-81
2022/05/10 13:26:07;;;;;;;2.88;2.67;;;31.90;34.90;;;;;;4985066;28;20706;-81
2022/05/10 13:28:32;;;;;;;2.95;2.67;;;31.90;34.60;;;;;;4983294;28;20136;-81
2022/05/10 13:30:59;;;;;;;4.38;2.50;;;31.90;34.80;;;;;;4998155;28;20553;-81
2022/05/10 13:33:28;;;;;;;3.10;2.80;;;31.90;34.70;;;;;;4990526;28;20038;-81